sensor_id;sensor_type;location;lat;lon;timestamp;P1;durP1;ratioP1;P2;durP2;ratioP2
22205;SDS011;11272;50.104;8.754;2023-03-02T00:02:09;22.23;;;9.77;;
22205;SDS011;11272;50.104;8.754;2023-03-02T00:04:38;19.60;;;8.93;;
22205;SDS011;11272;50.104;8.754;2023-03-02T00:07:11;19.30;;;9.67;;
22205;SDS011;11272;50.104;8.754;2023-03-02T00:09:38;19.93;;;9.50;;
22205;SDS011;11272;50.104;8.754;2023-03-02T00:12:05;21.97;;;9.63;;
22205;SDS011;11272;50.104;8.754;2023-03-02T00:14:32;21.13;;;9.43;;
22205;SDS011;11272;50.104;8.754;2023-03-02T00:16:57;22.17;;;9.77;;
22205;SDS011;11272;50.104;8.754;2023-03-02T00:19:23;18.53;;;9.10;;
22205;SDS011;11272;50.104;8.754;2023-03-02T00:21:48;25.00;;;10.23;;
22205;SDS011;11272;50.104;8.754;2023-03-02T00:24:14;19.57;;;9.37;;
22205;SDS011;11272;50.104;8.754;2023-03-02T00:26:40;22.10;;;10.17;;
22205;SDS011;11272;50.104;8.754;2023-03-02T00:29:05;21.37;;;9.53;;
22205;SDS011;11272;50.104;8.754;2023-03-02T00:31:31;21.00;;;9.17;;
22205;SDS011;11272;50.104;8.754;2023-03-02T00:33:57;20.13;;;9.90;;
22205;SDS011;11272;50.104;8.754;2023-03-02T00:36:22;22.00;;;9.67;;
22205;SDS011;11272;50.104;8.754;2023-03-02T00:38:48;21.67;;;9.10;;
22205;SDS011;11272;50.104;8.754;2023-03-02T00:41:16;22.33;;;9.90;;
22205;SDS011;11272;50.104;8.754;2023-03-02T00:43:42;20.07;;;9.60;;
22205;SDS011;11272;50.104;8.754;2023-03-02T00:46:12;20.30;;;9.50;;
22205;SDS011;11272;50.104;8.754;2023-03-02T00:48:42;21.27;;;9.60;;
22205;SDS011;11272;50.104;8.754;2023-03-02T00:51:08;19.87;;;9.77;;
22205;SDS011;11272;50.104;8.754;2023-03-02T00:53:34;19.30;;;9.40;;
22205;SDS011;11272;50.104;8.754;2023-03-02T00:56:01;20.63;;;9.50;;
22205;SDS011;11272;50.104;8.754;2023-03-02T00:58:30;20.20;;;9.67;;
22205;SDS011;11272;50.104;8.754;2023-03-02T01:01:03;18.77;;;10.00;;
22205;SDS011;11272;50.104;8.754;2023-03-02T01:03:33;20.23;;;9.70;;
22205;SDS011;11272;50.104;8.754;2023-03-02T01:05:59;22.43;;;10.17;;
22205;SDS011;11272;50.104;8.754;2023-03-02T01:08:24;20.57;;;9.57;;
22205;SDS011;11272;50.104;8.754;2023-03-02T01:10:50;19.30;;;9.37;;
22205;SDS011;11272;50.104;8.754;2023-03-02T01:13:17;18.03;;;9.57;;
22205;SDS011;11272;50.104;8.754;2023-03-02T01:15:43;20.33;;;9.70;;
22205;SDS011;11272;50.104;8.754;2023-03-02T01:18:09;20.90;;;9.23;;
22205;SDS011;11272;50.104;8.754;2023-03-02T01:20:35;22.47;;;9.87;;
22205;SDS011;11272;50.104;8.754;2023-03-02T01:23:00;21.73;;;9.77;;
22205;SDS011;11272;50.104;8.754;2023-03-02T01:25:26;23.57;;;9.77;;
22205;SDS011;11272;50.104;8.754;2023-03-02T01:27:51;19.87;;;10.10;;
22205;SDS011;11272;50.104;8.754;2023-03-02T01:30:17;21.63;;;10.20;;
22205;SDS011;11272;50.104;8.754;2023-03-02T01:32:43;20.77;;;10.00;;
22205;SDS011;11272;50.104;8.754;2023-03-02T01:35:08;22.63;;;9.60;;
22205;SDS011;11272;50.104;8.754;2023-03-02T01:37:34;22.47;;;9.87;;
22205;SDS011;11272;50.104;8.754;2023-03-02T01:39:59;26.30;;;9.80;;
22205;SDS011;11272;50.104;8.754;2023-03-02T01:42:32;21.00;;;9.90;;
22205;SDS011;11272;50.104;8.754;2023-03-02T01:44:58;20.53;;;9.40;;
22205;SDS011;11272;50.104;8.754;2023-03-02T01:47:31;21.10;;;9.90;;
22205;SDS011;11272;50.104;8.754;2023-03-02T01:52:44;26.07;;;10.20;;
22205;SDS011;11272;50.104;8.754;2023-03-02T01:55:10;16.67;;;9.30;;
22205;SDS011;11272;50.104;8.754;2023-03-02T01:57:41;21.27;;;9.70;;
22205;SDS011;11272;50.104;8.754;2023-03-02T02:00:13;20.97;;;10.93;;
22205;SDS011;11272;50.104;8.754;2023-03-02T02:02:44;24.50;;;11.03;;
22205;SDS011;11272;50.104;8.754;2023-03-02T02:05:12;26.00;;;10.77;;
22205;SDS011;11272;50.104;8.754;2023-03-02T02:07:42;23.20;;;10.70;;
22205;SDS011;11272;50.104;8.754;2023-03-02T02:10:09;21.70;;;10.73;;
22205;SDS011;11272;50.104;8.754;2023-03-02T02:12:35;22.93;;;9.80;;
22205;SDS011;11272;50.104;8.754;2023-03-02T02:15:02;22.97;;;10.07;;
22205;SDS011;11272;50.104;8.754;2023-03-02T02:17:28;17.83;;;9.90;;
22205;SDS011;11272;50.104;8.754;2023-03-02T02:20:01;23.00;;;11.03;;
22205;SDS011;11272;50.104;8.754;2023-03-02T02:25:28;19.60;;;9.27;;
22205;SDS011;11272;50.104;8.754;2023-03-02T02:28:05;21.60;;;9.07;;
22205;SDS011;11272;50.104;8.754;2023-03-02T02:30:35;19.53;;;9.90;;
22205;SDS011;11272;50.104;8.754;2023-03-02T02:33:04;20.13;;;10.03;;
22205;SDS011;11272;50.104;8.754;2023-03-02T02:35:30;23.67;;;10.40;;
22205;SDS011;11272;50.104;8.754;2023-03-02T02:38:04;22.73;;;9.70;;
22205;SDS011;11272;50.104;8.754;2023-03-02T02:43:18;21.43;;;9.47;;
22205;SDS011;11272;50.104;8.754;2023-03-02T02:45:46;27.93;;;9.90;;
22205;SDS011;11272;50.104;8.754;2023-03-02T02:48:20;19.30;;;9.20;;
22205;SDS011;11272;50.104;8.754;2023-03-02T02:50:48;19.83;;;9.17;;
22205;SDS011;11272;50.104;8.754;2023-03-02T02:53:26;21.93;;;10.47;;
22205;SDS011;11272;50.104;8.754;2023-03-02T02:55:58;22.57;;;9.87;;
22205;SDS011;11272;50.104;8.754;2023-03-02T02:58:36;18.27;;;9.70;;
22205;SDS011;11272;50.104;8.754;2023-03-02T03:01:06;19.80;;;9.33;;
22205;SDS011;11272;50.104;8.754;2023-03-02T03:03:35;19.90;;;9.93;;
22205;SDS011;11272;50.104;8.754;2023-03-02T03:06:07;22.83;;;9.37;;
22205;SDS011;11272;50.104;8.754;2023-03-02T03:11:17;19.57;;;9.47;;
22205;SDS011;11272;50.104;8.754;2023-03-02T03:16:37;19.10;;;9.57;;
22205;SDS011;11272;50.104;8.754;2023-03-02T03:19:09;23.60;;;10.23;;
22205;SDS011;11272;50.104;8.754;2023-03-02T03:21:40;18.47;;;9.07;;
22205;SDS011;11272;50.104;8.754;2023-03-02T03:24:06;20.90;;;10.20;;
22205;SDS011;11272;50.104;8.754;2023-03-02T03:26:31;17.37;;;9.10;;
22205;SDS011;11272;50.104;8.754;2023-03-02T03:28:57;19.33;;;9.67;;
22205;SDS011;11272;50.104;8.754;2023-03-02T03:31:24;28.07;;;9.37;;
22205;SDS011;11272;50.104;8.754;2023-03-02T03:33:52;24.37;;;9.47;;
22205;SDS011;11272;50.104;8.754;2023-03-02T03:36:20;19.37;;;9.37;;
22205;SDS011;11272;50.104;8.754;2023-03-02T03:38:47;17.37;;;9.53;;
22205;SDS011;11272;50.104;8.754;2023-03-02T03:41:13;20.37;;;9.63;;
22205;SDS011;11272;50.104;8.754;2023-03-02T03:43:39;22.83;;;9.70;;
22205;SDS011;11272;50.104;8.754;2023-03-02T03:46:06;21.20;;;9.40;;
22205;SDS011;11272;50.104;8.754;2023-03-02T03:48:31;21.93;;;9.63;;
22205;SDS011;11272;50.104;8.754;2023-03-02T03:50:58;21.57;;;9.17;;
22205;SDS011;11272;50.104;8.754;2023-03-02T03:53:25;21.33;;;10.20;;
22205;SDS011;11272;50.104;8.754;2023-03-02T03:55:52;19.17;;;8.97;;
22205;SDS011;11272;50.104;8.754;2023-03-02T03:58:17;19.27;;;9.20;;
22205;SDS011;11272;50.104;8.754;2023-03-02T04:00:44;22.07;;;9.70;;
22205;SDS011;11272;50.104;8.754;2023-03-02T04:03:13;18.70;;;9.57;;
22205;SDS011;11272;50.104;8.754;2023-03-02T04:05:39;18.37;;;8.97;;
22205;SDS011;11272;50.104;8.754;2023-03-02T04:08:05;20.90;;;10.07;;
22205;SDS011;11272;50.104;8.754;2023-03-02T04:10:32;16.50;;;8.20;;
22205;SDS011;11272;50.104;8.754;2023-03-02T04:12:59;19.87;;;9.40;;
22205;SDS011;11272;50.104;8.754;2023-03-02T04:15:25;21.20;;;9.20;;
22205;SDS011;11272;50.104;8.754;2023-03-02T04:17:51;22.00;;;9.60;;
22205;SDS011;11272;50.104;8.754;2023-03-02T04:20:19;15.23;;;8.23;;
22205;SDS011;11272;50.104;8.754;2023-03-02T04:22:50;19.67;;;9.30;;
22205;SDS011;11272;50.104;8.754;2023-03-02T04:25:18;15.70;;;8.47;;
22205;SDS011;11272;50.104;8.754;2023-03-02T04:27:48;18.63;;;8.83;;
22205;SDS011;11272;50.104;8.754;2023-03-02T04:30:18;17.37;;;8.70;;
22205;SDS011;11272;50.104;8.754;2023-03-02T04:32:47;18.37;;;8.57;;
22205;SDS011;11272;50.104;8.754;2023-03-02T04:35:13;19.43;;;9.50;;
22205;SDS011;11272;50.104;8.754;2023-03-02T04:37:40;17.20;;;9.20;;
22205;SDS011;11272;50.104;8.754;2023-03-02T04:40:08;20.43;;;9.70;;
22205;SDS011;11272;50.104;8.754;2023-03-02T04:42:34;20.67;;;8.60;;
22205;SDS011;11272;50.104;8.754;2023-03-02T04:45:00;21.80;;;10.20;;
22205;SDS011;11272;50.104;8.754;2023-03-02T04:47:25;20.70;;;9.40;;
22205;SDS011;11272;50.104;8.754;2023-03-02T04:49:51;19.87;;;9.70;;
22205;SDS011;11272;50.104;8.754;2023-03-02T04:52:22;19.60;;;9.50;;
22205;SDS011;11272;50.104;8.754;2023-03-02T04:54:49;19.10;;;9.47;;
22205;SDS011;11272;50.104;8.754;2023-03-02T04:57:14;23.73;;;9.30;;
22205;SDS011;11272;50.104;8.754;2023-03-02T04:59:40;19.13;;;9.07;;
22205;SDS011;11272;50.104;8.754;2023-03-02T05:02:06;18.60;;;8.90;;
22205;SDS011;11272;50.104;8.754;2023-03-02T05:04:31;21.80;;;9.20;;
22205;SDS011;11272;50.104;8.754;2023-03-02T05:06:57;24.17;;;9.40;;
22205;SDS011;11272;50.104;8.754;2023-03-02T05:09:23;21.27;;;9.10;;
22205;SDS011;11272;50.104;8.754;2023-03-02T05:11:52;26.27;;;9.77;;
22205;SDS011;11272;50.104;8.754;2023-03-02T05:14:21;18.93;;;9.30;;
22205;SDS011;11272;50.104;8.754;2023-03-02T05:16:47;20.97;;;9.50;;
22205;SDS011;11272;50.104;8.754;2023-03-02T05:19:12;17.60;;;8.70;;
22205;SDS011;11272;50.104;8.754;2023-03-02T05:21:38;14.77;;;8.17;;
22205;SDS011;11272;50.104;8.754;2023-03-02T05:24:05;20.93;;;9.03;;
22205;SDS011;11272;50.104;8.754;2023-03-02T05:26:31;19.27;;;8.83;;
22205;SDS011;11272;50.104;8.754;2023-03-02T05:28:58;17.43;;;9.40;;
22205;SDS011;11272;50.104;8.754;2023-03-02T05:31:28;17.67;;;8.60;;
22205;SDS011;11272;50.104;8.754;2023-03-02T05:33:59;24.83;;;9.43;;
22205;SDS011;11272;50.104;8.754;2023-03-02T05:36:27;25.17;;;9.30;;
22205;SDS011;11272;50.104;8.754;2023-03-02T05:38:53;18.53;;;8.83;;
22205;SDS011;11272;50.104;8.754;2023-03-02T05:41:19;18.10;;;8.87;;
22205;SDS011;11272;50.104;8.754;2023-03-02T05:43:45;20.53;;;8.80;;
22205;SDS011;11272;50.104;8.754;2023-03-02T05:46:11;21.27;;;8.47;;
22205;SDS011;11272;50.104;8.754;2023-03-02T05:48:36;19.37;;;8.33;;
22205;SDS011;11272;50.104;8.754;2023-03-02T05:51:02;17.17;;;8.30;;
22205;SDS011;11272;50.104;8.754;2023-03-02T05:53:28;18.87;;;8.90;;
22205;SDS011;11272;50.104;8.754;2023-03-02T05:55:54;17.90;;;7.80;;
22205;SDS011;11272;50.104;8.754;2023-03-02T05:58:20;21.90;;;9.33;;
22205;SDS011;11272;50.104;8.754;2023-03-02T06:00:46;19.53;;;8.47;;
22205;SDS011;11272;50.104;8.754;2023-03-02T06:03:13;19.10;;;8.97;;
22205;SDS011;11272;50.104;8.754;2023-03-02T06:05:40;17.60;;;8.03;;
22205;SDS011;11272;50.104;8.754;2023-03-02T06:08:07;17.73;;;8.53;;
22205;SDS011;11272;50.104;8.754;2023-03-02T06:10:33;18.80;;;8.87;;
22205;SDS011;11272;50.104;8.754;2023-03-02T06:12:59;21.07;;;9.40;;
22205;SDS011;11272;50.104;8.754;2023-03-02T06:15:25;16.30;;;8.47;;
22205;SDS011;11272;50.104;8.754;2023-03-02T06:17:54;20.30;;;7.77;;
22205;SDS011;11272;50.104;8.754;2023-03-02T06:20:23;18.73;;;8.10;;
22205;SDS011;11272;50.104;8.754;2023-03-02T06:22:48;21.07;;;8.17;;
22205;SDS011;11272;50.104;8.754;2023-03-02T06:25:16;20.47;;;7.93;;
22205;SDS011;11272;50.104;8.754;2023-03-02T06:27:43;18.23;;;8.40;;
22205;SDS011;11272;50.104;8.754;2023-03-02T06:30:14;15.50;;;8.30;;
22205;SDS011;11272;50.104;8.754;2023-03-02T06:32:41;27.20;;;9.17;;
22205;SDS011;11272;50.104;8.754;2023-03-02T06:35:09;17.63;;;7.93;;
22205;SDS011;11272;50.104;8.754;2023-03-02T06:37:35;17.13;;;7.43;;
22205;SDS011;11272;50.104;8.754;2023-03-02T06:40:01;15.63;;;7.67;;
22205;SDS011;11272;50.104;8.754;2023-03-02T06:42:29;18.53;;;8.23;;
22205;SDS011;11272;50.104;8.754;2023-03-02T06:44:55;20.17;;;8.40;;
22205;SDS011;11272;50.104;8.754;2023-03-02T06:50:06;16.97;;;8.00;;
22205;SDS011;11272;50.104;8.754;2023-03-02T06:52:34;18.27;;;7.07;;
22205;SDS011;11272;50.104;8.754;2023-03-02T06:55:00;17.67;;;8.20;;
22205;SDS011;11272;50.104;8.754;2023-03-02T06:57:26;16.93;;;8.43;;
22205;SDS011;11272;50.104;8.754;2023-03-02T07:00:05;18.47;;;8.47;;
22205;SDS011;11272;50.104;8.754;2023-03-02T07:02:44;19.10;;;8.07;;
22205;SDS011;11272;50.104;8.754;2023-03-02T07:05:17;23.17;;;8.53;;
22205;SDS011;11272;50.104;8.754;2023-03-02T07:07:44;21.77;;;8.73;;
22205;SDS011;11272;50.104;8.754;2023-03-02T07:10:11;19.50;;;9.17;;
22205;SDS011;11272;50.104;8.754;2023-03-02T07:12:38;18.90;;;8.33;;
22205;SDS011;11272;50.104;8.754;2023-03-02T07:15:05;17.40;;;7.80;;
22205;SDS011;11272;50.104;8.754;2023-03-02T07:17:37;16.77;;;7.60;;
22205;SDS011;11272;50.104;8.754;2023-03-02T07:22:55;17.33;;;8.00;;
22205;SDS011;11272;50.104;8.754;2023-03-02T07:25:21;22.07;;;8.93;;
22205;SDS011;11272;50.104;8.754;2023-03-02T07:27:47;17.30;;;7.83;;
22205;SDS011;11272;50.104;8.754;2023-03-02T07:30:14;14.40;;;7.30;;
22205;SDS011;11272;50.104;8.754;2023-03-02T07:32:40;18.37;;;8.23;;
22205;SDS011;11272;50.104;8.754;2023-03-02T07:35:06;19.47;;;8.70;;
22205;SDS011;11272;50.104;8.754;2023-03-02T07:37:32;17.23;;;8.87;;
22205;SDS011;11272;50.104;8.754;2023-03-02T07:40:01;17.87;;;8.90;;
22205;SDS011;11272;50.104;8.754;2023-03-02T07:42:28;17.60;;;8.80;;
22205;SDS011;11272;50.104;8.754;2023-03-02T07:44:56;17.13;;;8.77;;
22205;SDS011;11272;50.104;8.754;2023-03-02T07:47:22;20.50;;;9.33;;
22205;SDS011;11272;50.104;8.754;2023-03-02T07:49:49;16.73;;;8.33;;
22205;SDS011;11272;50.104;8.754;2023-03-02T07:52:15;17.83;;;8.30;;
22205;SDS011;11272;50.104;8.754;2023-03-02T07:54:41;20.77;;;9.10;;
22205;SDS011;11272;50.104;8.754;2023-03-02T07:57:07;19.93;;;8.83;;
22205;SDS011;11272;50.104;8.754;2023-03-02T07:59:33;19.67;;;8.90;;
22205;SDS011;11272;50.104;8.754;2023-03-02T08:01:59;16.93;;;8.40;;
22205;SDS011;11272;50.104;8.754;2023-03-02T08:04:25;20.83;;;8.73;;
22205;SDS011;11272;50.104;8.754;2023-03-02T08:06:54;19.60;;;9.47;;
22205;SDS011;11272;50.104;8.754;2023-03-02T08:09:25;18.30;;;8.30;;
22205;SDS011;11272;50.104;8.754;2023-03-02T08:11:50;20.23;;;8.63;;
22205;SDS011;11272;50.104;8.754;2023-03-02T08:14:16;19.07;;;8.97;;
22205;SDS011;11272;50.104;8.754;2023-03-02T08:16:42;22.43;;;8.47;;
22205;SDS011;11272;50.104;8.754;2023-03-02T08:19:08;18.53;;;8.90;;
22205;SDS011;11272;50.104;8.754;2023-03-02T08:21:35;20.43;;;9.10;;
22205;SDS011;11272;50.104;8.754;2023-03-02T08:24:01;20.43;;;9.87;;
22205;SDS011;11272;50.104;8.754;2023-03-02T08:26:27;17.63;;;8.70;;
22205;SDS011;11272;50.104;8.754;2023-03-02T08:28:53;14.83;;;8.43;;
22205;SDS011;11272;50.104;8.754;2023-03-02T08:31:20;21.50;;;8.97;;
22205;SDS011;11272;50.104;8.754;2023-03-02T08:33:46;18.13;;;8.80;;
22205;SDS011;11272;50.104;8.754;2023-03-02T08:36:13;19.77;;;9.80;;
22205;SDS011;11272;50.104;8.754;2023-03-02T08:38:41;16.67;;;9.17;;
22205;SDS011;11272;50.104;8.754;2023-03-02T08:41:09;16.60;;;8.97;;
22205;SDS011;11272;50.104;8.754;2023-03-02T08:43:38;17.17;;;8.70;;
22205;SDS011;11272;50.104;8.754;2023-03-02T08:46:08;16.93;;;9.20;;
22205;SDS011;11272;50.104;8.754;2023-03-02T08:48:36;18.47;;;9.33;;
22205;SDS011;11272;50.104;8.754;2023-03-02T08:51:12;17.23;;;9.20;;
22205;SDS011;11272;50.104;8.754;2023-03-02T08:53:41;18.80;;;9.03;;
22205;SDS011;11272;50.104;8.754;2023-03-02T08:56:16;15.87;;;8.90;;
22205;SDS011;11272;50.104;8.754;2023-03-02T08:58:53;14.43;;;8.77;;
22205;SDS011;11272;50.104;8.754;2023-03-02T09:01:23;14.33;;;9.10;;
22205;SDS011;11272;50.104;8.754;2023-03-02T09:03:50;16.00;;;9.20;;
22205;SDS011;11272;50.104;8.754;2023-03-02T09:06:17;16.00;;;9.30;;
22205;SDS011;11272;50.104;8.754;2023-03-02T09:08:43;17.23;;;9.63;;
22205;SDS011;11272;50.104;8.754;2023-03-02T09:11:09;16.27;;;9.67;;
22205;SDS011;11272;50.104;8.754;2023-03-02T09:13:40;15.50;;;9.40;;
22205;SDS011;11272;50.104;8.754;2023-03-02T09:16:07;13.77;;;8.90;;
22205;SDS011;11272;50.104;8.754;2023-03-02T09:18:34;18.00;;;9.60;;
22205;SDS011;11272;50.104;8.754;2023-03-02T09:21:01;15.53;;;8.93;;
22205;SDS011;11272;50.104;8.754;2023-03-02T09:23:27;13.67;;;9.33;;
22205;SDS011;11272;50.104;8.754;2023-03-02T09:28:58;15.30;;;9.33;;
22205;SDS011;11272;50.104;8.754;2023-03-02T09:31:25;15.07;;;9.17;;
22205;SDS011;11272;50.104;8.754;2023-03-02T09:33:51;14.37;;;9.33;;
22205;SDS011;11272;50.104;8.754;2023-03-02T09:36:19;18.03;;;10.10;;
22205;SDS011;11272;50.104;8.754;2023-03-02T09:38:48;17.63;;;9.97;;
22205;SDS011;11272;50.104;8.754;2023-03-02T09:44:15;15.10;;;10.10;;
22205;SDS011;11272;50.104;8.754;2023-03-02T09:46:59;15.60;;;9.67;;
22205;SDS011;11272;50.104;8.754;2023-03-02T09:52:46;15.60;;;9.20;;
22205;SDS011;11272;50.104;8.754;2023-03-02T09:55:24;15.27;;;9.27;;
22205;SDS011;11272;50.104;8.754;2023-03-02T09:57:53;16.00;;;9.87;;
22205;SDS011;11272;50.104;8.754;2023-03-02T10:03:15;13.70;;;8.93;;
22205;SDS011;11272;50.104;8.754;2023-03-02T10:05:44;16.93;;;9.47;;
22205;SDS011;11272;50.104;8.754;2023-03-02T10:08:17;16.23;;;10.20;;
22205;SDS011;11272;50.104;8.754;2023-03-02T10:10:48;16.13;;;10.07;;
22205;SDS011;11272;50.104;8.754;2023-03-02T10:13:38;16.47;;;9.53;;
22205;SDS011;11272;50.104;8.754;2023-03-02T10:19:18;17.67;;;10.10;;
22205;SDS011;11272;50.104;8.754;2023-03-02T10:22:08;17.97;;;9.37;;
22205;SDS011;11272;50.104;8.754;2023-03-02T10:24:48;14.43;;;9.43;;
22205;SDS011;11272;50.104;8.754;2023-03-02T10:27:24;13.77;;;9.43;;
22205;SDS011;11272;50.104;8.754;2023-03-02T10:30:30;21.10;;;9.93;;
22205;SDS011;11272;50.104;8.754;2023-03-02T10:33:01;15.07;;;8.83;;
22205;SDS011;11272;50.104;8.754;2023-03-02T10:35:35;17.93;;;10.10;;
22205;SDS011;11272;50.104;8.754;2023-03-02T10:38:35;18.13;;;8.87;;
22205;SDS011;11272;50.104;8.754;2023-03-02T10:40:59;14.13;;;9.13;;
22205;SDS011;11272;50.104;8.754;2023-03-02T10:46:15;15.50;;;9.30;;
22205;SDS011;11272;50.104;8.754;2023-03-02T10:48:45;12.90;;;9.10;;
22205;SDS011;11272;50.104;8.754;2023-03-02T10:51:32;12.77;;;9.20;;
22205;SDS011;11272;50.104;8.754;2023-03-02T10:54:11;15.63;;;9.27;;
22205;SDS011;11272;50.104;8.754;2023-03-02T10:56:42;15.10;;;9.27;;
22205;SDS011;11272;50.104;8.754;2023-03-02T11:01:59;16.93;;;9.03;;
22205;SDS011;11272;50.104;8.754;2023-03-02T11:04:37;14.27;;;9.03;;
22205;SDS011;11272;50.104;8.754;2023-03-02T11:07:10;14.30;;;8.93;;
22205;SDS011;11272;50.104;8.754;2023-03-02T11:09:56;14.23;;;8.73;;
22205;SDS011;11272;50.104;8.754;2023-03-02T11:12:44;13.10;;;9.10;;
22205;SDS011;11272;50.104;8.754;2023-03-02T11:17:36;27.57;;;16.80;;
22205;SDS011;11272;50.104;8.754;2023-03-02T11:20:04;16.30;;;9.33;;
22205;SDS011;11272;50.104;8.754;2023-03-02T11:22:49;18.50;;;8.70;;
22205;SDS011;11272;50.104;8.754;2023-03-02T11:25:30;12.87;;;8.47;;
22205;SDS011;11272;50.104;8.754;2023-03-02T11:28:07;14.10;;;9.90;;
22205;SDS011;11272;50.104;8.754;2023-03-02T11:30:40;13.63;;;8.73;;
22205;SDS011;11272;50.104;8.754;2023-03-02T11:33:14;14.57;;;8.97;;
22205;SDS011;11272;50.104;8.754;2023-03-02T11:35:49;17.23;;;8.83;;
22205;SDS011;11272;50.104;8.754;2023-03-02T11:38:24;15.13;;;8.37;;
22205;SDS011;11272;50.104;8.754;2023-03-02T11:41:01;14.93;;;8.77;;
22205;SDS011;11272;50.104;8.754;2023-03-02T11:43:34;15.13;;;8.83;;
22205;SDS011;11272;50.104;8.754;2023-03-02T11:46:01;14.03;;;7.67;;
22205;SDS011;11272;50.104;8.754;2023-03-02T11:48:35;15.90;;;8.53;;
22205;SDS011;11272;50.104;8.754;2023-03-02T11:51:14;15.23;;;8.40;;
22205;SDS011;11272;50.104;8.754;2023-03-02T11:56:10;14.80;;;8.57;;
22205;SDS011;11272;50.104;8.754;2023-03-02T11:58:36;11.70;;;7.97;;
22205;SDS011;11272;50.104;8.754;2023-03-02T12:01:03;15.02;;;8.30;;
22205;SDS011;11272;50.104;8.754;2023-03-02T12:03:42;11.83;;;8.23;;
22205;SDS011;11272;50.104;8.754;2023-03-02T12:08:39;16.52;;;9.13;;
22205;SDS011;11272;50.104;8.754;2023-03-02T12:11:32;13.57;;;9.35;;
22205;SDS011;11272;50.104;8.754;2023-03-02T12:14:00;16.08;;;8.68;;
22205;SDS011;11272;50.104;8.754;2023-03-02T12:16:39;13.77;;;8.60;;
22205;SDS011;11272;50.104;8.754;2023-03-02T12:19:25;15.70;;;9.13;;
22205;SDS011;11272;50.104;8.754;2023-03-02T12:22:00;16.85;;;8.88;;
22205;SDS011;11272;50.104;8.754;2023-03-02T12:24:34;15.80;;;9.40;;
22205;SDS011;11272;50.104;8.754;2023-03-02T12:29:41;14.70;;;9.00;;
22205;SDS011;11272;50.104;8.754;2023-03-02T12:34:44;13.57;;;8.70;;
22205;SDS011;11272;50.104;8.754;2023-03-02T12:43:28;14.90;;;9.30;;
22205;SDS011;11272;50.104;8.754;2023-03-02T12:46:07;14.38;;;8.30;;
22205;SDS011;11272;50.104;8.754;2023-03-02T12:49:16;13.03;;;9.13;;
22205;SDS011;11272;50.104;8.754;2023-03-02T12:52:21;13.93;;;8.97;;
22205;SDS011;11272;50.104;8.754;2023-03-02T12:57:48;15.50;;;8.87;;
22205;SDS011;11272;50.104;8.754;2023-03-02T13:00:19;15.10;;;8.53;;
22205;SDS011;11272;50.104;8.754;2023-03-02T13:02:48;14.50;;;8.07;;
22205;SDS011;11272;50.104;8.754;2023-03-02T13:05:17;11.87;;;8.40;;
22205;SDS011;11272;50.104;8.754;2023-03-02T13:08:16;17.23;;;8.67;;
22205;SDS011;11272;50.104;8.754;2023-03-02T13:13:16;14.13;;;8.40;;
22205;SDS011;11272;50.104;8.754;2023-03-02T13:15:52;15.90;;;8.80;;
22205;SDS011;11272;50.104;8.754;2023-03-02T13:18:20;14.33;;;8.03;;
22205;SDS011;11272;50.104;8.754;2023-03-02T13:20:48;12.93;;;9.30;;
22205;SDS011;11272;50.104;8.754;2023-03-02T13:23:15;11.83;;;7.40;;
22205;SDS011;11272;50.104;8.754;2023-03-02T13:25:49;14.32;;;8.63;;
22205;SDS011;11272;50.104;8.754;2023-03-02T13:33:26;15.07;;;7.53;;
22205;SDS011;11272;50.104;8.754;2023-03-02T13:35:53;13.50;;;8.57;;
22205;SDS011;11272;50.104;8.754;2023-03-02T13:38:21;15.80;;;8.53;;
22205;SDS011;11272;50.104;8.754;2023-03-02T13:40:51;15.53;;;7.80;;
22205;SDS011;11272;50.104;8.754;2023-03-02T13:43:37;14.03;;;7.93;;
22205;SDS011;11272;50.104;8.754;2023-03-02T13:48:31;13.23;;;7.03;;
22205;SDS011;11272;50.104;8.754;2023-03-02T13:51:02;11.47;;;6.60;;
22205;SDS011;11272;50.104;8.754;2023-03-02T13:53:40;13.60;;;7.00;;
22205;SDS011;11272;50.104;8.754;2023-03-02T13:56:15;14.53;;;6.50;;
22205;SDS011;11272;50.104;8.754;2023-03-02T13:58:42;13.93;;;6.90;;
22205;SDS011;11272;50.104;8.754;2023-03-02T14:01:09;10.50;;;6.13;;
22205;SDS011;11272;50.104;8.754;2023-03-02T14:03:38;12.90;;;6.47;;
22205;SDS011;11272;50.104;8.754;2023-03-02T14:06:04;13.40;;;7.03;;
22205;SDS011;11272;50.104;8.754;2023-03-02T14:08:32;15.70;;;6.90;;
22205;SDS011;11272;50.104;8.754;2023-03-02T14:10:58;13.20;;;7.10;;
22205;SDS011;11272;50.104;8.754;2023-03-02T14:13:29;12.40;;;7.37;;
22205;SDS011;11272;50.104;8.754;2023-03-02T14:16:11;12.87;;;7.23;;
22205;SDS011;11272;50.104;8.754;2023-03-02T14:21:23;16.10;;;7.07;;
22205;SDS011;11272;50.104;8.754;2023-03-02T14:23:50;15.83;;;7.90;;
22205;SDS011;11272;50.104;8.754;2023-03-02T14:26:22;15.60;;;7.30;;
22205;SDS011;11272;50.104;8.754;2023-03-02T14:28:51;15.80;;;7.77;;
22205;SDS011;11272;50.104;8.754;2023-03-02T14:31:17;15.67;;;7.07;;
22205;SDS011;11272;50.104;8.754;2023-03-02T14:33:44;12.63;;;7.60;;
22205;SDS011;11272;50.104;8.754;2023-03-02T14:36:12;14.40;;;6.33;;
22205;SDS011;11272;50.104;8.754;2023-03-02T14:38:41;12.57;;;6.33;;
22205;SDS011;11272;50.104;8.754;2023-03-02T14:41:10;14.70;;;7.07;;
22205;SDS011;11272;50.104;8.754;2023-03-02T14:43:47;19.07;;;7.63;;
22205;SDS011;11272;50.104;8.754;2023-03-02T14:46:13;15.67;;;6.97;;
22205;SDS011;11272;50.104;8.754;2023-03-02T14:48:39;13.67;;;7.43;;
22205;SDS011;11272;50.104;8.754;2023-03-02T14:51:46;16.20;;;7.97;;
22205;SDS011;11272;50.104;8.754;2023-03-02T14:54:07;15.53;;;7.20;;
22205;SDS011;11272;50.104;8.754;2023-03-02T14:56:37;17.07;;;7.80;;
22205;SDS011;11272;50.104;8.754;2023-03-02T14:59:04;16.50;;;7.60;;
22205;SDS011;11272;50.104;8.754;2023-03-02T15:01:29;15.10;;;7.73;;
22205;SDS011;11272;50.104;8.754;2023-03-02T15:03:57;20.10;;;8.23;;
22205;SDS011;11272;50.104;8.754;2023-03-02T15:06:25;16.07;;;8.93;;
22205;SDS011;11272;50.104;8.754;2023-03-02T15:08:53;15.73;;;9.50;;
22205;SDS011;11272;50.104;8.754;2023-03-02T15:11:20;17.30;;;9.90;;
22205;SDS011;11272;50.104;8.754;2023-03-02T15:13:46;27.50;;;10.57;;
22205;SDS011;11272;50.104;8.754;2023-03-02T15:16:12;19.60;;;9.87;;
22205;SDS011;11272;50.104;8.754;2023-03-02T15:18:38;17.70;;;9.53;;
22205;SDS011;11272;50.104;8.754;2023-03-02T15:21:04;16.87;;;9.53;;
22205;SDS011;11272;50.104;8.754;2023-03-02T15:23:31;16.07;;;9.07;;
22205;SDS011;11272;50.104;8.754;2023-03-02T15:25:58;17.40;;;9.57;;
22205;SDS011;11272;50.104;8.754;2023-03-02T15:28:24;15.60;;;9.00;;
22205;SDS011;11272;50.104;8.754;2023-03-02T15:30:51;19.33;;;9.47;;
22205;SDS011;11272;50.104;8.754;2023-03-02T15:33:16;21.23;;;9.50;;
22205;SDS011;11272;50.104;8.754;2023-03-02T15:35:42;17.20;;;8.83;;
22205;SDS011;11272;50.104;8.754;2023-03-02T15:38:09;21.83;;;9.67;;
22205;SDS011;11272;50.104;8.754;2023-03-02T15:40:36;17.07;;;9.60;;
22205;SDS011;11272;50.104;8.754;2023-03-02T15:43:03;16.70;;;9.40;;
22205;SDS011;11272;50.104;8.754;2023-03-02T15:45:29;15.90;;;9.13;;
22205;SDS011;11272;50.104;8.754;2023-03-02T15:47:55;16.23;;;9.13;;
22205;SDS011;11272;50.104;8.754;2023-03-02T15:50:21;22.43;;;9.50;;
22205;SDS011;11272;50.104;8.754;2023-03-02T15:52:48;18.47;;;9.07;;
22205;SDS011;11272;50.104;8.754;2023-03-02T15:55:15;20.77;;;8.70;;
22205;SDS011;11272;50.104;8.754;2023-03-02T15:57:41;14.30;;;8.33;;
22205;SDS011;11272;50.104;8.754;2023-03-02T16:00:07;16.37;;;9.10;;
22205;SDS011;11272;50.104;8.754;2023-03-02T16:02:34;16.00;;;8.53;;